sensor_id;sensor_type;location;lat;lon;timestamp;P1;durP1;ratioP1;P2;durP2;ratioP2
18217;SDS011;9234;49.344;11.120;2023-08-30T00:01:07;1.48;;;1.38;;
18217;SDS011;9234;49.344;11.120;2023-08-30T00:03:37;4.35;;;2.13;;
18217;SDS011;9234;49.344;11.120;2023-08-30T00:06:06;3.00;;;2.42;;
18217;SDS011;9234;49.344;11.120;2023-08-30T00:08:35;4.15;;;1.92;;
18217;SDS011;9234;49.344;11.120;2023-08-30T00:11:03;3.08;;;2.53;;
18217;SDS011;9234;49.344;11.120;2023-08-30T00:13:32;2.70;;;2.50;;
18217;SDS011;9234;49.344;11.120;2023-08-30T00:16:00;2.70;;;2.20;;
18217;SDS011;9234;49.344;11.120;2023-08-30T00:18:29;2.85;;;2.65;;
18217;SDS011;9234;49.344;11.120;2023-08-30T00:20:59;2.60;;;2.40;;
18217;SDS011;9234;49.344;11.120;2023-08-30T00:23:28;5.80;;;2.63;;
18217;SDS011;9234;49.344;11.120;2023-08-30T00:25:56;5.22;;;2.15;;
18217;SDS011;9234;49.344;11.120;2023-08-30T00:28:24;2.90;;;2.42;;
18217;SDS011;9234;49.344;11.120;2023-08-30T00:30:53;3.80;;;2.20;;
18217;SDS011;9234;49.344;11.120;2023-08-30T00:33:23;2.08;;;1.88;;
18217;SDS011;9234;49.344;11.120;2023-08-30T00:35:57;3.78;;;1.70;;
18217;SDS011;9234;49.344;11.120;2023-08-30T00:38:28;2.95;;;1.95;;
18217;SDS011;9234;49.344;11.120;2023-08-30T00:40:56;8.30;;;2.00;;
18217;SDS011;9234;49.344;11.120;2023-08-30T00:43:25;3.58;;;2.00;;
18217;SDS011;9234;49.344;11.120;2023-08-30T00:45:53;2.85;;;2.00;;
18217;SDS011;9234;49.344;11.120;2023-08-30T00:48:21;3.60;;;1.77;;
18217;SDS011;9234;49.344;11.120;2023-08-30T00:50:50;2.28;;;2.05;;
18217;SDS011;9234;49.344;11.120;2023-08-30T00:53:20;4.90;;;1.95;;
18217;SDS011;9234;49.344;11.120;2023-08-30T00:55:48;4.20;;;1.88;;
18217;SDS011;9234;49.344;11.120;2023-08-30T00:58:17;2.40;;;1.80;;
18217;SDS011;9234;49.344;11.120;2023-08-30T01:00:46;2.50;;;2.30;;
18217;SDS011;9234;49.344;11.120;2023-08-30T01:03:15;5.32;;;2.22;;
18217;SDS011;9234;49.344;11.120;2023-08-30T01:05:43;2.47;;;1.90;;
18217;SDS011;9234;49.344;11.120;2023-08-30T01:08:12;7.95;;;1.92;;
18217;SDS011;9234;49.344;11.120;2023-08-30T01:10:47;2.65;;;1.73;;
18217;SDS011;9234;49.344;11.120;2023-08-30T01:13:23;3.63;;;1.65;;
18217;SDS011;9234;49.344;11.120;2023-08-30T01:15:57;2.10;;;1.90;;
18217;SDS011;9234;49.344;11.120;2023-08-30T01:18:28;1.92;;;1.80;;
18217;SDS011;9234;49.344;11.120;2023-08-30T01:21:01;4.10;;;2.33;;
18217;SDS011;9234;49.344;11.120;2023-08-30T01:23:36;2.40;;;2.17;;
18217;SDS011;9234;49.344;11.120;2023-08-30T01:26:24;7.35;;;2.35;;
18217;SDS011;9234;49.344;11.120;2023-08-30T01:29:10;3.95;;;2.60;;
18217;SDS011;9234;49.344;11.120;2023-08-30T01:31:41;3.83;;;1.80;;
18217;SDS011;9234;49.344;11.120;2023-08-30T01:34:12;1.90;;;1.80;;
18217;SDS011;9234;49.344;11.120;2023-08-30T01:36:42;1.67;;;1.58;;
18217;SDS011;9234;49.344;11.120;2023-08-30T01:39:11;2.50;;;1.70;;
18217;SDS011;9234;49.344;11.120;2023-08-30T01:41:42;5.03;;;1.77;;
18217;SDS011;9234;49.344;11.120;2023-08-30T01:44:13;3.17;;;1.92;;
18217;SDS011;9234;49.344;11.120;2023-08-30T01:46:43;4.40;;;2.17;;
18217;SDS011;9234;49.344;11.120;2023-08-30T01:49:14;1.90;;;1.80;;
18217;SDS011;9234;49.344;11.120;2023-08-30T01:51:43;3.13;;;1.85;;
18217;SDS011;9234;49.344;11.120;2023-08-30T01:54:12;2.22;;;1.85;;
18217;SDS011;9234;49.344;11.120;2023-08-30T01:56:46;2.15;;;1.95;;
18217;SDS011;9234;49.344;11.120;2023-08-30T01:59:16;2.20;;;2.00;;
18217;SDS011;9234;49.344;11.120;2023-08-30T02:01:44;5.57;;;2.17;;
18217;SDS011;9234;49.344;11.120;2023-08-30T02:04:13;2.63;;;1.88;;
18217;SDS011;9234;49.344;11.120;2023-08-30T02:06:42;2.17;;;1.92;;
18217;SDS011;9234;49.344;11.120;2023-08-30T02:09:18;2.60;;;2.40;;
18217;SDS011;9234;49.344;11.120;2023-08-30T02:11:54;2.25;;;2.05;;
18217;SDS011;9234;49.344;11.120;2023-08-30T02:14:28;4.20;;;2.60;;
18217;SDS011;9234;49.344;11.120;2023-08-30T02:16:57;3.70;;;2.47;;
18217;SDS011;9234;49.344;11.120;2023-08-30T02:19:26;3.00;;;2.70;;
18217;SDS011;9234;49.344;11.120;2023-08-30T02:21:54;3.83;;;2.65;;
18217;SDS011;9234;49.344;11.120;2023-08-30T02:24:23;2.58;;;2.38;;
18217;SDS011;9234;49.344;11.120;2023-08-30T02:26:51;3.13;;;2.58;;
18217;SDS011;9234;49.344;11.120;2023-08-30T02:29:19;2.85;;;2.30;;
18217;SDS011;9234;49.344;11.120;2023-08-30T02:31:49;3.83;;;2.65;;
18217;SDS011;9234;49.344;11.120;2023-08-30T02:34:20;3.90;;;2.58;;
18217;SDS011;9234;49.344;11.120;2023-08-30T02:36:48;3.28;;;2.70;;
18217;SDS011;9234;49.344;11.120;2023-08-30T02:39:17;3.88;;;2.25;;
18217;SDS011;9234;49.344;11.120;2023-08-30T02:41:45;4.07;;;2.63;;
18217;SDS011;9234;49.344;11.120;2023-08-30T02:44:14;3.80;;;2.28;;
18217;SDS011;9234;49.344;11.120;2023-08-30T02:46:42;4.18;;;1.98;;
18217;SDS011;9234;49.344;11.120;2023-08-30T02:49:12;2.50;;;2.30;;
18217;SDS011;9234;49.344;11.120;2023-08-30T02:51:40;2.67;;;2.10;;
18217;SDS011;9234;49.344;11.120;2023-08-30T02:54:08;2.22;;;2.00;;
18217;SDS011;9234;49.344;11.120;2023-08-30T02:56:40;5.20;;;2.42;;
18217;SDS011;9234;49.344;11.120;2023-08-30T02:59:09;7.68;;;2.58;;
18217;SDS011;9234;49.344;11.120;2023-08-30T03:01:38;2.28;;;2.08;;
18217;SDS011;9234;49.344;11.120;2023-08-30T03:04:07;4.78;;;2.22;;
18217;SDS011;9234;49.344;11.120;2023-08-30T03:06:37;2.30;;;2.10;;
18217;SDS011;9234;49.344;11.120;2023-08-30T03:09:05;2.97;;;2.70;;
18217;SDS011;9234;49.344;11.120;2023-08-30T03:11:36;3.13;;;2.22;;
18217;SDS011;9234;49.344;11.120;2023-08-30T03:14:04;3.03;;;2.42;;
18217;SDS011;9234;49.344;11.120;2023-08-30T03:16:32;2.58;;;2.22;;
18217;SDS011;9234;49.344;11.120;2023-08-30T03:19:01;3.33;;;1.90;;
18217;SDS011;9234;49.344;11.120;2023-08-30T03:21:30;3.28;;;2.35;;
18217;SDS011;9234;49.344;11.120;2023-08-30T03:24:00;6.43;;;2.78;;
18217;SDS011;9234;49.344;11.120;2023-08-30T03:26:28;4.43;;;2.08;;
18217;SDS011;9234;49.344;11.120;2023-08-30T03:28:56;3.88;;;2.13;;
18217;SDS011;9234;49.344;11.120;2023-08-30T03:31:25;2.78;;;2.22;;
18217;SDS011;9234;49.344;11.120;2023-08-30T03:33:53;3.65;;;1.98;;
18217;SDS011;9234;49.344;11.120;2023-08-30T03:36:22;2.58;;;2.38;;
18217;SDS011;9234;49.344;11.120;2023-08-30T03:38:52;6.20;;;2.30;;
18217;SDS011;9234;49.344;11.120;2023-08-30T03:41:21;3.60;;;2.25;;
18217;SDS011;9234;49.344;11.120;2023-08-30T03:43:50;5.20;;;2.85;;
18217;SDS011;9234;49.344;11.120;2023-08-30T03:46:18;2.75;;;2.50;;
18217;SDS011;9234;49.344;11.120;2023-08-30T03:48:46;4.53;;;2.90;;
18217;SDS011;9234;49.344;11.120;2023-08-30T03:51:16;6.68;;;2.58;;
18217;SDS011;9234;49.344;11.120;2023-08-30T03:53:44;3.13;;;2.83;;
18217;SDS011;9234;49.344;11.120;2023-08-30T03:56:13;7.22;;;2.60;;
18217;SDS011;9234;49.344;11.120;2023-08-30T03:58:42;2.95;;;2.58;;
18217;SDS011;9234;49.344;11.120;2023-08-30T04:01:12;2.92;;;2.63;;
18217;SDS011;9234;49.344;11.120;2023-08-30T04:03:40;5.15;;;2.58;;
18217;SDS011;9234;49.344;11.120;2023-08-30T04:06:09;4.15;;;2.83;;
18217;SDS011;9234;49.344;11.120;2023-08-30T04:08:37;2.28;;;2.10;;
18217;SDS011;9234;49.344;11.120;2023-08-30T04:11:05;4.03;;;2.75;;
18217;SDS011;9234;49.344;11.120;2023-08-30T04:13:34;3.05;;;2.85;;
18217;SDS011;9234;49.344;11.120;2023-08-30T04:16:04;3.10;;;2.20;;
18217;SDS011;9234;49.344;11.120;2023-08-30T04:18:32;2.70;;;2.47;;
18217;SDS011;9234;49.344;11.120;2023-08-30T04:21:00;3.78;;;2.75;;
18217;SDS011;9234;49.344;11.120;2023-08-30T04:23:29;4.47;;;2.47;;
18217;SDS011;9234;49.344;11.120;2023-08-30T04:25:57;3.50;;;3.22;;
18217;SDS011;9234;49.344;11.120;2023-08-30T04:28:26;4.18;;;3.17;;
18217;SDS011;9234;49.344;11.120;2023-08-30T04:30:54;4.82;;;2.95;;
18217;SDS011;9234;49.344;11.120;2023-08-30T04:33:24;3.97;;;3.17;;
18217;SDS011;9234;49.344;11.120;2023-08-30T04:35:53;6.57;;;2.70;;
18217;SDS011;9234;49.344;11.120;2023-08-30T04:38:22;3.40;;;2.90;;
18217;SDS011;9234;49.344;11.120;2023-08-30T04:40:56;4.93;;;3.17;;
18217;SDS011;9234;49.344;11.120;2023-08-30T04:43:26;2.90;;;2.70;;
18217;SDS011;9234;49.344;11.120;2023-08-30T04:45:55;4.28;;;3.88;;
18217;SDS011;9234;49.344;11.120;2023-08-30T04:48:26;4.68;;;3.90;;
18217;SDS011;9234;49.344;11.120;2023-08-30T04:50:58;7.35;;;4.45;;
18217;SDS011;9234;49.344;11.120;2023-08-30T04:53:29;6.63;;;4.30;;
18217;SDS011;9234;49.344;11.120;2023-08-30T04:55:58;4.80;;;4.35;;
18217;SDS011;9234;49.344;11.120;2023-08-30T04:58:28;4.50;;;4.10;;
18217;SDS011;9234;49.344;11.120;2023-08-30T05:00:58;7.38;;;3.50;;
18217;SDS011;9234;49.344;11.120;2023-08-30T05:03:27;3.92;;;3.58;;
18217;SDS011;9234;49.344;11.120;2023-08-30T05:05:58;3.63;;;3.33;;
18217;SDS011;9234;49.344;11.120;2023-08-30T05:08:27;8.38;;;3.58;;
18217;SDS011;9234;49.344;11.120;2023-08-30T05:10:55;7.32;;;3.72;;
18217;SDS011;9234;49.344;11.120;2023-08-30T05:13:24;10.38;;;3.72;;
18217;SDS011;9234;49.344;11.120;2023-08-30T05:15:52;4.20;;;3.90;;
18217;SDS011;9234;49.344;11.120;2023-08-30T05:18:20;6.57;;;4.95;;
18217;SDS011;9234;49.344;11.120;2023-08-30T05:20:50;4.72;;;3.80;;
18217;SDS011;9234;49.344;11.120;2023-08-30T05:23:18;4.30;;;3.90;;
18217;SDS011;9234;49.344;11.120;2023-08-30T05:25:46;4.82;;;3.70;;
18217;SDS011;9234;49.344;11.120;2023-08-30T05:28:16;6.45;;;3.85;;
18217;SDS011;9234;49.344;11.120;2023-08-30T05:30:44;5.50;;;3.85;;
18217;SDS011;9234;49.344;11.120;2023-08-30T05:33:26;5.57;;;4.15;;
18217;SDS011;9234;49.344;11.120;2023-08-30T05:36:05;5.18;;;3.72;;
18217;SDS011;9234;49.344;11.120;2023-08-30T05:39:00;5.13;;;4.28;;
18217;SDS011;9234;49.344;11.120;2023-08-30T05:41:34;4.18;;;3.75;;
18217;SDS011;9234;49.344;11.120;2023-08-30T05:44:03;6.53;;;4.07;;
18217;SDS011;9234;49.344;11.120;2023-08-30T05:46:32;4.47;;;4.07;;
18217;SDS011;9234;49.344;11.120;2023-08-30T05:49:00;8.60;;;4.80;;
18217;SDS011;9234;49.344;11.120;2023-08-30T05:51:31;5.20;;;4.40;;
18217;SDS011;9234;49.344;11.120;2023-08-30T05:53:59;6.07;;;5.25;;
18217;SDS011;9234;49.344;11.120;2023-08-30T05:56:28;4.47;;;4.07;;
18217;SDS011;9234;49.344;11.120;2023-08-30T05:58:57;7.20;;;4.50;;
18217;SDS011;9234;49.344;11.120;2023-08-30T06:01:25;6.38;;;5.03;;
18217;SDS011;9234;49.344;11.120;2023-08-30T06:03:53;8.10;;;6.72;;
18217;SDS011;9234;49.344;11.120;2023-08-30T06:06:22;8.77;;;7.95;;
18217;SDS011;9234;49.344;11.120;2023-08-30T06:08:51;9.25;;;8.10;;
18217;SDS011;9234;49.344;11.120;2023-08-30T06:11:19;10.55;;;8.63;;
18217;SDS011;9234;49.344;11.120;2023-08-30T06:13:48;10.32;;;8.88;;
18217;SDS011;9234;49.344;11.120;2023-08-30T06:16:16;10.00;;;9.10;;
18217;SDS011;9234;49.344;11.120;2023-08-30T06:18:45;10.35;;;9.20;;
18217;SDS011;9234;49.344;11.120;2023-08-30T06:21:13;10.45;;;9.45;;
18217;SDS011;9234;49.344;11.120;2023-08-30T06:23:41;10.68;;;9.57;;
18217;SDS011;9234;49.344;11.120;2023-08-30T06:26:11;11.77;;;9.77;;
18217;SDS011;9234;49.344;11.120;2023-08-30T06:28:39;10.40;;;8.95;;
18217;SDS011;9234;49.344;11.120;2023-08-30T06:31:24;10.82;;;7.78;;
18217;SDS011;9234;49.344;11.120;2023-08-30T06:33:55;9.93;;;7.75;;
18217;SDS011;9234;49.344;11.120;2023-08-30T06:36:23;11.63;;;8.02;;
18217;SDS011;9234;49.344;11.120;2023-08-30T06:38:51;10.68;;;8.35;;
18217;SDS011;9234;49.344;11.120;2023-08-30T06:41:21;9.38;;;8.43;;
18217;SDS011;9234;49.344;11.120;2023-08-30T06:43:49;10.32;;;9.40;;
18217;SDS011;9234;49.344;11.120;2023-08-30T06:46:18;12.00;;;9.88;;
18217;SDS011;9234;49.344;11.120;2023-08-30T06:48:46;10.85;;;9.70;;
18217;SDS011;9234;49.344;11.120;2023-08-30T06:51:15;13.75;;;12.27;;
18217;SDS011;9234;49.344;11.120;2023-08-30T06:53:43;13.35;;;12.20;;
18217;SDS011;9234;49.344;11.120;2023-08-30T06:56:12;14.95;;;13.38;;
18217;SDS011;9234;49.344;11.120;2023-08-30T06:58:42;15.90;;;14.40;;
18217;SDS011;9234;49.344;11.120;2023-08-30T07:01:10;16.63;;;14.88;;
18217;SDS011;9234;49.344;11.120;2023-08-30T07:03:39;17.25;;;14.05;;
18217;SDS011;9234;49.344;11.120;2023-08-30T07:06:07;15.60;;;14.02;;
18217;SDS011;9234;49.344;11.120;2023-08-30T07:08:35;15.90;;;14.30;;
18217;SDS011;9234;49.344;11.120;2023-08-30T07:11:04;17.00;;;15.30;;
18217;SDS011;9234;49.344;11.120;2023-08-30T07:13:46;16.20;;;14.55;;
18217;SDS011;9234;49.344;11.120;2023-08-30T07:16:17;16.35;;;14.63;;
18217;SDS011;9234;49.344;11.120;2023-08-30T07:18:45;15.60;;;13.93;;
18217;SDS011;9234;49.344;11.120;2023-08-30T07:21:14;16.30;;;14.70;;
18217;SDS011;9234;49.344;11.120;2023-08-30T07:23:42;15.07;;;13.57;;
18217;SDS011;9234;49.344;11.120;2023-08-30T07:26:11;17.55;;;15.00;;
18217;SDS011;9234;49.344;11.120;2023-08-30T07:28:39;17.25;;;15.00;;
18217;SDS011;9234;49.344;11.120;2023-08-30T07:31:09;16.17;;;14.68;;
18217;SDS011;9234;49.344;11.120;2023-08-30T07:33:40;17.10;;;15.45;;
18217;SDS011;9234;49.344;11.120;2023-08-30T07:36:08;19.05;;;17.05;;
18217;SDS011;9234;49.344;11.120;2023-08-30T07:38:37;17.77;;;15.98;;
18217;SDS011;9234;49.344;11.120;2023-08-30T07:41:06;18.52;;;16.65;;
18217;SDS011;9234;49.344;11.120;2023-08-30T07:43:37;18.05;;;16.15;;
18217;SDS011;9234;49.344;11.120;2023-08-30T07:46:05;21.38;;;16.75;;
18217;SDS011;9234;49.344;11.120;2023-08-30T07:48:35;20.75;;;17.92;;
18217;SDS011;9234;49.344;11.120;2023-08-30T07:51:03;18.30;;;16.52;;
18217;SDS011;9234;49.344;11.120;2023-08-30T07:53:31;18.95;;;17.08;;
18217;SDS011;9234;49.344;11.120;2023-08-30T07:56:00;18.08;;;16.48;;
18217;SDS011;9234;49.344;11.120;2023-08-30T07:58:29;19.42;;;17.52;;
18217;SDS011;9234;49.344;11.120;2023-08-30T08:00:57;19.90;;;17.83;;
18217;SDS011;9234;49.344;11.120;2023-08-30T08:03:26;18.08;;;16.55;;
18217;SDS011;9234;49.344;11.120;2023-08-30T08:05:56;21.35;;;18.63;;
18217;SDS011;9234;49.344;11.120;2023-08-30T08:08:26;17.83;;;16.20;;
18217;SDS011;9234;49.344;11.120;2023-08-30T08:10:55;19.55;;;17.70;;
18217;SDS011;9234;49.344;11.120;2023-08-30T08:13:23;19.70;;;17.98;;
18217;SDS011;9234;49.344;11.120;2023-08-30T08:15:51;18.08;;;16.48;;
18217;SDS011;9234;49.344;11.120;2023-08-30T08:18:23;18.02;;;16.33;;
18217;SDS011;9234;49.344;11.120;2023-08-30T08:20:51;19.45;;;17.38;;
18217;SDS011;9234;49.344;11.120;2023-08-30T08:23:21;16.90;;;15.35;;
18217;SDS011;9234;49.344;11.120;2023-08-30T08:25:49;16.48;;;15.07;;
18217;SDS011;9234;49.344;11.120;2023-08-30T08:28:25;17.00;;;15.60;;
18217;SDS011;9234;49.344;11.120;2023-08-30T08:30:53;16.63;;;15.02;;
18217;SDS011;9234;49.344;11.120;2023-08-30T08:33:22;15.10;;;13.70;;
18217;SDS011;9234;49.344;11.120;2023-08-30T08:35:50;14.05;;;12.80;;
18217;SDS011;9234;49.344;11.120;2023-08-30T08:38:19;12.93;;;11.75;;
18217;SDS011;9234;49.344;11.120;2023-08-30T08:40:49;12.70;;;11.32;;
18217;SDS011;9234;49.344;11.120;2023-08-30T08:43:28;12.23;;;11.13;;
18217;SDS011;9234;49.344;11.120;2023-08-30T08:46:00;11.45;;;10.45;;
18217;SDS011;9234;49.344;11.120;2023-08-30T08:48:36;12.80;;;11.70;;
18217;SDS011;9234;49.344;11.120;2023-08-30T08:51:11;12.27;;;11.10;;
18217;SDS011;9234;49.344;11.120;2023-08-30T08:53:40;12.07;;;11.07;;
18217;SDS011;9234;49.344;11.120;2023-08-30T08:56:11;12.98;;;11.55;;
18217;SDS011;9234;49.344;11.120;2023-08-30T08:58:41;13.55;;;12.15;;
18217;SDS011;9234;49.344;11.120;2023-08-30T09:01:10;12.15;;;11.05;;
18217;SDS011;9234;49.344;11.120;2023-08-30T09:03:58;11.85;;;10.73;;
18217;SDS011;9234;49.344;11.120;2023-08-30T09:06:28;11.63;;;10.52;;
18217;SDS011;9234;49.344;11.120;2023-08-30T09:08:57;11.93;;;10.73;;
18217;SDS011;9234;49.344;11.120;2023-08-30T09:11:26;10.45;;;9.52;;
18217;SDS011;9234;49.344;11.120;2023-08-30T09:14:15;10.55;;;9.55;;
18217;SDS011;9234;49.344;11.120;2023-08-30T09:16:53;12.65;;;9.60;;
18217;SDS011;9234;49.344;11.120;2023-08-30T09:19:22;10.43;;;9.45;;
18217;SDS011;9234;49.344;11.120;2023-08-30T09:21:51;11.32;;;9.98;;
18217;SDS011;9234;49.344;11.120;2023-08-30T09:24:20;12.32;;;8.10;;
18217;SDS011;9234;49.344;11.120;2023-08-30T09:26:51;8.45;;;7.75;;
18217;SDS011;9234;49.344;11.120;2023-08-30T09:29:22;9.77;;;8.93;;
18217;SDS011;9234;49.344;11.120;2023-08-30T09:31:51;9.60;;;8.65;;
18217;SDS011;9234;49.344;11.120;2023-08-30T09:34:22;9.23;;;8.32;;
18217;SDS011;9234;49.344;11.120;2023-08-30T09:36:52;8.80;;;8.00;;
18217;SDS011;9234;49.344;11.120;2023-08-30T09:39:22;9.73;;;8.82;;
18217;SDS011;9234;49.344;11.120;2023-08-30T09:41:53;9.13;;;8.27;;
18217;SDS011;9234;49.344;11.120;2023-08-30T09:44:22;9.23;;;8.32;;
18217;SDS011;9234;49.344;11.120;2023-08-30T09:46:52;8.77;;;7.90;;
18217;SDS011;9234;49.344;11.120;2023-08-30T09:49:23;8.45;;;7.57;;
18217;SDS011;9234;49.344;11.120;2023-08-30T09:51:53;9.32;;;8.27;;
18217;SDS011;9234;49.344;11.120;2023-08-30T09:54:22;8.85;;;8.05;;
18217;SDS011;9234;49.344;11.120;2023-08-30T09:56:56;9.48;;;8.57;;
18217;SDS011;9234;49.344;11.120;2023-08-30T09:59:27;9.85;;;8.95;;
18217;SDS011;9234;49.344;11.120;2023-08-30T10:01:56;8.75;;;7.95;;
18217;SDS011;9234;49.344;11.120;2023-08-30T10:04:26;8.82;;;7.95;;
18217;SDS011;9234;49.344;11.120;2023-08-30T10:06:57;8.65;;;7.82;;
18217;SDS011;9234;49.344;11.120;2023-08-30T10:09:26;9.00;;;8.20;;
18217;SDS011;9234;49.344;11.120;2023-08-30T10:11:59;9.65;;;8.43;;
18217;SDS011;9234;49.344;11.120;2023-08-30T10:14:29;9.75;;;8.95;;
18217;SDS011;9234;49.344;11.120;2023-08-30T10:16:59;9.38;;;8.48;;
18217;SDS011;9234;49.344;11.120;2023-08-30T10:19:30;10.32;;;8.82;;
18217;SDS011;9234;49.344;11.120;2023-08-30T10:22:00;9.35;;;8.43;;
18217;SDS011;9234;49.344;11.120;2023-08-30T10:24:32;10.15;;;9.13;;
18217;SDS011;9234;49.344;11.120;2023-08-30T10:27:28;10.15;;;9.27;;
18217;SDS011;9234;49.344;11.120;2023-08-30T10:30:00;8.77;;;7.88;;
18217;SDS011;9234;49.344;11.120;2023-08-30T10:32:31;8.68;;;7.88;;
18217;SDS011;9234;49.344;11.120;2023-08-30T10:35:00;8.88;;;7.97;;
18217;SDS011;9234;49.344;11.120;2023-08-30T10:37:30;10.80;;;9.80;;
18217;SDS011;9234;49.344;11.120;2023-08-30T10:40:02;10.48;;;9.57;;
18217;SDS011;9234;49.344;11.120;2023-08-30T10:42:34;10.93;;;9.80;;
18217;SDS011;9234;49.344;11.120;2023-08-30T10:45:04;10.25;;;9.35;;
18217;SDS011;9234;49.344;11.120;2023-08-30T10:47:40;35.38;;;28.08;;
18217;SDS011;9234;49.344;11.120;2023-08-30T10:50:09;12.65;;;11.02;;
18217;SDS011;9234;49.344;11.120;2023-08-30T10:52:39;9.85;;;8.85;;
18217;SDS011;9234;49.344;11.120;2023-08-30T10:55:08;10.32;;;9.43;;
18217;SDS011;9234;49.344;11.120;2023-08-30T10:57:42;10.25;;;9.25;;
18217;SDS011;9234;49.344;11.120;2023-08-30T11:00:17;9.85;;;8.30;;
18217;SDS011;9234;49.344;11.120;2023-08-30T11:02:48;8.57;;;7.88;;
18217;SDS011;9234;49.344;11.120;2023-08-30T11:05:20;8.60;;;7.80;;
18217;SDS011;9234;49.344;11.120;2023-08-30T11:07:50;8.80;;;7.93;;
18217;SDS011;9234;49.344;11.120;2023-08-30T11:10:20;8.07;;;7.00;;
18217;SDS011;9234;49.344;11.120;2023-08-30T11:12:50;7.75;;;6.95;;
18217;SDS011;9234;49.344;11.120;2023-08-30T11:15:18;5.93;;;5.50;;
18217;SDS011;9234;49.344;11.120;2023-08-30T11:17:47;7.55;;;6.78;;
18217;SDS011;9234;49.344;11.120;2023-08-30T11:20:16;5.85;;;5.25;;
18217;SDS011;9234;49.344;11.120;2023-08-30T11:22:46;6.38;;;5.88;;
18217;SDS011;9234;49.344;11.120;2023-08-30T11:25:16;6.35;;;5.80;;
18217;SDS011;9234;49.344;11.120;2023-08-30T11:27:44;7.03;;;5.70;;
18217;SDS011;9234;49.344;11.120;2023-08-30T11:30:15;7.03;;;6.30;;
18217;SDS011;9234;49.344;11.120;2023-08-30T11:32:45;7.90;;;5.90;;
18217;SDS011;9234;49.344;11.120;2023-08-30T11:35:14;7.70;;;5.32;;
18217;SDS011;9234;49.344;11.120;2023-08-30T11:37:44;6.35;;;5.75;;
18217;SDS011;9234;49.344;11.120;2023-08-30T11:40:12;7.00;;;6.40;;
18217;SDS011;9234;49.344;11.120;2023-08-30T11:42:41;7.95;;;5.78;;
18217;SDS011;9234;49.344;11.120;2023-08-30T11:45:13;4.60;;;4.00;;
18217;SDS011;9234;49.344;11.120;2023-08-30T11:47:44;5.53;;;4.10;;
18217;SDS011;9234;49.344;11.120;2023-08-30T11:50:13;3.92;;;3.50;;
18217;SDS011;9234;49.344;11.120;2023-08-30T11:52:41;3.97;;;3.63;;
18217;SDS011;9234;49.344;11.120;2023-08-30T11:55:10;4.35;;;3.95;;
18217;SDS011;9234;49.344;11.120;2023-08-30T11:57:39;6.40;;;3.95;;
18217;SDS011;9234;49.344;11.120;2023-08-30T12:00:12;4.10;;;3.67;;
18217;SDS011;9234;49.344;11.120;2023-08-30T12:02:42;3.83;;;3.53;;
18217;SDS011;9234;49.344;11.120;2023-08-30T12:05:11;4.60;;;4.20;;
18217;SDS011;9234;49.344;11.120;2023-08-30T12:07:40;3.90;;;3.55;;
18217;SDS011;9234;49.344;11.120;2023-08-30T12:10:09;3.85;;;3.55;;
18217;SDS011;9234;49.344;11.120;2023-08-30T12:12:43;3.85;;;3.55;;
18217;SDS011;9234;49.344;11.120;2023-08-30T12:15:13;3.83;;;3.53;;
18217;SDS011;9234;49.344;11.120;2023-08-30T12:17:44;4.30;;;3.90;;
18217;SDS011;9234;49.344;11.120;2023-08-30T12:20:16;4.13;;;3.70;;
18217;SDS011;9234;49.344;11.120;2023-08-30T12:22:47;4.95;;;4.55;;
18217;SDS011;9234;49.344;11.120;2023-08-30T12:25:18;5.40;;;4.88;;
18217;SDS011;9234;49.344;11.120;2023-08-30T12:27:47;5.97;;;4.78;;
18217;SDS011;9234;49.344;11.120;2023-08-30T12:30:16;7.50;;;4.65;;
18217;SDS011;9234;49.344;11.120;2023-08-30T12:32:46;6.57;;;5.45;;
18217;SDS011;9234;49.344;11.120;2023-08-30T12:35:15;5.40;;;4.95;;
18217;SDS011;9234;49.344;11.120;2023-08-30T12:37:43;6.85;;;5.70;;
18217;SDS011;9234;49.344;11.120;2023-08-30T12:40:12;6.30;;;5.80;;
18217;SDS011;9234;49.344;11.120;2023-08-30T12:42:40;6.18;;;5.60;;
18217;SDS011;9234;49.344;11.120;2023-08-30T12:45:08;6.25;;;5.03;;
18217;SDS011;9234;49.344;11.120;2023-08-30T12:47:38;6.00;;;5.50;;
18217;SDS011;9234;49.344;11.120;2023-08-30T12:50:08;5.85;;;5.22;;
18217;SDS011;9234;49.344;11.120;2023-08-30T12:52:37;5.82;;;5.32;;
18217;SDS011;9234;49.344;11.120;2023-08-30T12:55:05;6.10;;;5.50;;
18217;SDS011;9234;49.344;11.120;2023-08-30T12:57:36;5.57;;;5.07;;
18217;SDS011;9234;49.344;11.120;2023-08-30T13:00:05;5.40;;;4.82;;
18217;SDS011;9234;49.344;11.120;2023-08-30T13:02:34;5.97;;;5.03;;
18217;SDS011;9234;49.344;11.120;2023-08-30T13:05:03;5.07;;;4.60;;
18217;SDS011;9234;49.344;11.120;2023-08-30T13:07:33;5.18;;;4.68;;
18217;SDS011;9234;49.344;11.120;2023-08-30T13:10:01;5.22;;;4.72;;
18217;SDS011;9234;49.344;11.120;2023-08-30T13:12:30;4.40;;;4.00;;
18217;SDS011;9234;49.344;11.120;2023-08-30T13:14:58;5.13;;;4.40;;
18217;SDS011;9234;49.344;11.120;2023-08-30T13:17:27;4.57;;;4.22;;
18217;SDS011;9234;49.344;11.120;2023-08-30T13:19:55;3.90;;;3.60;;
18217;SDS011;9234;49.344;11.120;2023-08-30T13:22:24;4.28;;;3.88;;
18217;SDS011;9234;49.344;11.120;2023-08-30T13:24:55;3.65;;;3.35;;
18217;SDS011;9234;49.344;11.120;2023-08-30T13:27:23;4.45;;;3.55;;
18217;SDS011;9234;49.344;11.120;2023-08-30T13:29:51;4.30;;;3.90;;
18217;SDS011;9234;49.344;11.120;2023-08-30T13:32:19;3.97;;;3.58;;
18217;SDS011;9234;49.344;11.120;2023-08-30T13:34:49;4.28;;;3.88;;
18217;SDS011;9234;49.344;11.120;2023-08-30T13:37:17;4.53;;;4.13;;
18217;SDS011;9234;49.344;11.120;2023-08-30T13:39:46;4.85;;;4.38;;
18217;SDS011;9234;49.344;11.120;2023-08-30T13:42:15;4.95;;;4.55;;
18217;SDS011;9234;49.344;11.120;2023-08-30T13:44:44;5.38;;;4.93;;
18217;SDS011;9234;49.344;11.120;2023-08-30T13:47:12;4.85;;;4.22;;
18217;SDS011;9234;49.344;11.120;2023-08-30T13:49:42;4.20;;;3.80;;
18217;SDS011;9234;49.344;11.120;2023-08-30T13:52:10;4.35;;;3.95;;
18217;SDS011;9234;49.344;11.120;2023-08-30T13:54:39;4.70;;;4.07;;
18217;SDS011;9234;49.344;11.120;2023-08-30T13:57:07;4.40;;;3.85;;
18217;SDS011;9234;49.344;11.120;2023-08-30T13:59:37;4.18;;;3.83;;
18217;SDS011;9234;49.344;11.120;2023-08-30T14:02:05;4.50;;;4.10;;
18217;SDS011;9234;49.344;11.120;2023-08-30T14:04:34;4.03;;;3.72;;
18217;SDS011;9234;49.344;11.120;2023-08-30T14:07:04;4.63;;;3.80;;
18217;SDS011;9234;49.344;11.120;2023-08-30T14:09:32;4.32;;;4.03;;
18217;SDS011;9234;49.344;11.120;2023-08-30T14:12:00;4.50;;;3.95;;
18217;SDS011;9234;49.344;11.120;2023-08-30T14:14:30;4.55;;;4.15;;
18217;SDS011;9234;49.344;11.120;2023-08-30T14:17:00;4.25;;;3.85;;
18217;SDS011;9234;49.344;11.120;2023-08-30T14:19:28;4.43;;;4.07;;
18217;SDS011;9234;49.344;11.120;2023-08-30T14:21:57;4.80;;;3.63;;
18217;SDS011;9234;49.344;11.120;2023-08-30T14:24:25;4.03;;;3.72;;
18217;SDS011;9234;49.344;11.120;2023-08-30T14:27:00;3.88;;;3.45;;
18217;SDS011;9234;49.344;11.120;2023-08-30T14:29:28;4.05;;;3.70;;
18217;SDS011;9234;49.344;11.120;2023-08-30T14:31:57;3.53;;;3.22;;
18217;SDS011;9234;49.344;11.120;2023-08-30T14:34:27;3.50;;;3.20;;
18217;SDS011;9234;49.344;11.120;2023-08-30T14:36:55;3.35;;;3.05;;
18217;SDS011;9234;49.344;11.120;2023-08-30T14:39:23;3.47;;;3.17;;
18217;SDS011;9234;49.344;11.120;2023-08-30T14:41:52;3.03;;;2.55;;
18217;SDS011;9234;49.344;11.120;2023-08-30T14:44:20;3.35;;;3.05;;
18217;SDS011;9234;49.344;11.120;2023-08-30T14:46:52;3.22;;;2.97;;
18217;SDS011;9234;49.344;11.120;2023-08-30T14:49:21;4.22;;;2.95;;
18217;SDS011;9234;49.344;11.120;2023-08-30T14:51:50;2.83;;;2.63;;
18217;SDS011;9234;49.344;11.120;2023-08-30T14:54:19;2.50;;;2.30;;
18217;SDS011;9234;49.344;11.120;2023-08-30T14:56:47;3.30;;;2.75;;
18217;SDS011;9234;49.344;11.120;2023-08-30T14:59:16;4.68;;;2.58;;